createdAt,value
2018-01-24T00:01:01.393Z,24.00
2018-01-24T00:02:06.477Z,29.50
2018-01-24T00:03:10.655Z,20.00
2018-01-24T00:04:15.514Z,22.00
2018-01-24T00:05:19.752Z,25.50
2018-01-24T00:06:23.868Z,20.50
2018-01-24T00:07:28.012Z,25.00
2018-01-24T00:08:32.188Z,25.00
2018-01-24T00:09:36.318Z,21.50
2018-01-24T00:10:41.607Z,24.50
2018-01-24T00:11:45.720Z,25.00
2018-01-24T00:12:50.796Z,20.00
2018-01-24T00:13:55.068Z,20.00
2018-01-24T00:14:59.776Z,29.00
2018-01-24T00:16:04.231Z,33.00
2018-01-24T00:17:08.653Z,25.00
2018-01-24T00:18:12.768Z,24.00
2018-01-24T00:19:17.796Z,19.50
2018-01-24T00:20:21.880Z,20.50
2018-01-24T00:21:26.016Z,22.00
2018-01-24T00:22:30.129Z,22.00
2018-01-24T00:23:34.569Z,26.50
2018-01-24T00:24:38.760Z,26.00
2018-01-24T00:25:42.888Z,26.50
2018-01-24T00:26:47.112Z,18.50
2018-01-24T00:27:52.031Z,20.50
2018-01-24T00:28:56.797Z,23.50
2018-01-24T00:30:00.886Z,27.00
2018-01-24T00:31:05.413Z,28.00
2018-01-24T00:32:10.055Z,16.00
2018-01-24T00:33:14.248Z,26.50
2018-01-24T00:34:18.371Z,14.00
2018-01-24T00:35:22.665Z,24.00
2018-01-24T00:36:27.078Z,17.00
2018-01-24T00:37:31.243Z,19.50
2018-01-24T00:38:35.462Z,23.00
2018-01-24T00:39:40.188Z,28.00
2018-01-24T00:40:44.410Z,17.50
2018-01-24T00:41:49.104Z,26.00
2018-01-24T00:42:54.604Z,17.50
2018-01-24T00:43:59.519Z,15.00
2018-01-24T00:45:06.449Z,18.00
2018-01-24T00:46:11.844Z,17.50
2018-01-24T00:47:17.295Z,28.00
2018-01-24T00:48:21.509Z,15.50
2018-01-24T00:49:26.212Z,19.00
2018-01-24T00:50:30.601Z,20.00
2018-01-24T00:51:34.925Z,15.50
2018-01-24T00:52:49.510Z,17.00
2018-01-24T00:53:53.634Z,14.50
2018-01-24T00:54:59.327Z,21.00
2018-01-24T00:56:04.734Z,20.00
2018-01-24T00:57:10.040Z,23.00
2018-01-24T00:58:14.129Z,20.50
2018-01-24T00:59:18.651Z,19.50
2018-01-24T01:00:23.807Z,27.50
2018-01-24T01:01:29.020Z,15.50
2018-01-24T01:02:33.561Z,20.00
2018-01-24T01:03:37.936Z,15.00
2018-01-24T01:04:42.139Z,14.00
2018-01-24T01:05:46.285Z,20.00
2018-01-24T01:06:51.054Z,14.50
2018-01-24T01:07:57.718Z,14.00
2018-01-24T01:09:03.022Z,22.00
2018-01-24T01:10:10.441Z,21.00
2018-01-24T01:11:14.560Z,20.00
2018-01-24T01:12:18.760Z,21.00
2018-01-24T01:13:22.914Z,23.00
2018-01-24T01:14:27.764Z,19.50
2018-01-24T01:15:32.071Z,33.00
2018-01-24T01:16:36.173Z,24.50
2018-01-24T01:17:40.935Z,23.00
2018-01-24T01:18:45.179Z,29.00
2018-01-24T01:19:49.812Z,19.50
2018-01-24T01:20:54.251Z,17.50
2018-01-24T01:21:58.760Z,20.50
2018-01-24T01:23:03.011Z,14.00
2018-01-24T01:24:07.084Z,20.00
2018-01-24T01:25:11.223Z,27.00
2018-01-24T01:26:15.672Z,20.50
2018-01-24T01:27:19.875Z,24.50
2018-01-24T01:28:24.656Z,22.00
2018-01-24T01:29:28.743Z,18.00
2018-01-24T01:30:33.173Z,29.00
2018-01-24T01:31:37.472Z,23.50
2018-01-24T01:32:41.863Z,22.00
2018-01-24T01:33:46.052Z,20.00
2018-01-24T01:34:50.943Z,20.00
2018-01-24T01:35:55.112Z,16.00
2018-01-24T01:36:59.760Z,18.00
2018-01-24T01:38:03.928Z,15.50
2018-01-24T01:39:08.359Z,14.00
2018-01-24T01:40:12.485Z,20.00
2018-01-24T01:41:16.566Z,24.00
2018-01-24T01:42:20.764Z,20.00
2018-01-24T01:43:24.952Z,17.00
2018-01-24T01:44:29.160Z,20.00
2018-01-24T01:45:34.361Z,24.00
2018-01-24T01:46:38.596Z,16.50
2018-01-24T01:47:43.272Z,18.50
2018-01-24T01:48:48.163Z,19.50
2018-01-24T01:49:53.364Z,20.00
2018-01-24T01:50:58.281Z,16.00
2018-01-24T01:52:02.874Z,17.50
2018-01-24T01:53:07.056Z,7.50
2018-01-24T01:54:11.304Z,17.00
2018-01-24T01:55:16.422Z,15.50
2018-01-24T01:56:20.492Z,19.00
2018-01-24T01:57:24.623Z,14.00
2018-01-24T01:58:29.780Z,26.00
2018-01-24T01:59:33.948Z,20.00
2018-01-24T02:00:38.324Z,21.00
2018-01-24T02:01:42.915Z,22.00
2018-01-24T02:02:47.848Z,23.00
2018-01-24T02:03:52.512Z,21.50
2018-01-24T02:04:56.996Z,15.50
2018-01-24T02:06:01.121Z,16.50
2018-01-24T02:07:05.313Z,19.50
2018-01-24T02:08:09.383Z,21.00
2018-01-24T02:09:13.477Z,11.00
2018-01-24T02:10:17.564Z,18.50
2018-01-24T02:11:21.642Z,16.50
2018-01-24T02:12:25.887Z,21.50
2018-01-24T02:13:30.005Z,20.50
2018-01-24T02:14:34.128Z,14.50
2018-01-24T02:15:38.704Z,23.00
2018-01-24T02:16:44.496Z,29.50
2018-01-24T02:17:50.619Z,27.50
2018-01-24T02:18:54.712Z,25.00
2018-01-24T02:19:59.279Z,21.50
2018-01-24T02:21:03.678Z,23.50
2018-01-24T02:22:07.753Z,25.50
2018-01-24T02:23:11.852Z,18.00
2018-01-24T02:24:16.015Z,20.50
2018-01-24T02:25:20.257Z,21.50
2018-01-24T02:26:24.347Z,21.50
2018-01-24T02:27:28.762Z,23.00
2018-01-24T02:28:32.892Z,21.50
2018-01-24T02:29:36.992Z,20.00
2018-01-24T02:30:41.313Z,26.50
2018-01-24T02:31:45.403Z,23.00
2018-01-24T02:32:49.491Z,18.00
2018-01-24T02:33:54.033Z,24.50
2018-01-24T02:34:58.153Z,19.00
2018-01-24T02:36:02.260Z,31.50
2018-01-24T02:37:06.432Z,28.50
2018-01-24T02:38:19.252Z,25.50
2018-01-24T02:39:23.676Z,27.50
2018-01-24T02:40:27.841Z,17.50
2018-01-24T02:41:31.954Z,19.00
2018-01-24T02:42:36.060Z,19.50
2018-01-24T02:43:40.188Z,26.00
2018-01-24T02:44:44.290Z,21.00
2018-01-24T02:45:49.921Z,22.50
2018-01-24T02:46:54.408Z,29.50
2018-01-24T02:47:58.854Z,24.00
2018-01-24T02:49:02.932Z,28.00
2018-01-24T02:50:07.039Z,23.50
2018-01-24T02:51:11.437Z,25.50
2018-01-24T02:52:15.626Z,35.50
2018-01-24T02:53:19.724Z,25.00
2018-01-24T02:54:23.843Z,27.00
2018-01-24T02:55:27.938Z,33.50
2018-01-24T02:56:32.083Z,24.00
2018-01-24T02:57:36.532Z,27.00
2018-01-24T02:58:40.655Z,27.00
2018-01-24T02:59:44.775Z,22.00
2018-01-24T03:00:49.340Z,23.50
2018-01-24T03:01:53.486Z,16.50
2018-01-24T03:02:58.559Z,21.50
2018-01-24T03:04:02.969Z,14.50
2018-01-24T03:05:07.092Z,20.50
2018-01-24T03:06:11.240Z,24.00
2018-01-24T03:07:15.356Z,22.00
2018-01-24T03:08:19.440Z,22.00
2018-01-24T03:09:24.053Z,21.00
2018-01-24T03:10:28.976Z,30.00
2018-01-24T03:11:33.463Z,20.00
2018-01-24T03:12:37.568Z,21.00
2018-01-24T03:13:41.672Z,16.00
2018-01-24T03:14:46.011Z,23.00
2018-01-24T03:15:50.256Z,22.00
2018-01-24T03:16:54.395Z,17.00
2018-01-24T03:17:58.475Z,25.00
2018-01-24T03:19:02.594Z,21.00
2018-01-24T03:20:06.933Z,30.00
2018-01-24T03:21:11.128Z,27.50
2018-01-24T03:22:15.190Z,20.50
2018-01-24T03:23:19.304Z,20.50
2018-01-24T03:24:24.077Z,27.00
2018-01-24T03:25:30.672Z,23.00
2018-01-24T03:26:34.816Z,17.00
2018-01-24T03:27:39.042Z,18.00
2018-01-24T03:28:43.552Z,24.50
2018-01-24T03:29:48.412Z,17.50
2018-01-24T03:30:52.769Z,26.00
2018-01-24T03:31:57.115Z,25.50
2018-01-24T03:33:01.810Z,25.00
2018-01-24T03:34:06.134Z,23.00
2018-01-24T03:35:10.621Z,26.00
2018-01-24T03:36:14.723Z,26.00
2018-01-24T03:37:18.828Z,25.00
2018-01-24T03:38:23.123Z,19.50
2018-01-24T03:39:27.250Z,21.00
2018-01-24T03:40:31.370Z,16.50
2018-01-24T03:41:35.559Z,23.50
2018-01-24T03:42:39.694Z,16.00
2018-01-24T03:43:43.793Z,20.00
2018-01-24T03:44:47.883Z,18.00
2018-01-24T03:45:52.866Z,24.50
2018-01-24T03:46:58.445Z,18.50
2018-01-24T03:48:02.721Z,20.50
2018-01-24T03:49:06.780Z,23.50
2018-01-24T03:50:10.922Z,14.00
2018-01-24T03:51:15.146Z,25.00
2018-01-24T03:52:19.295Z,22.00
2018-01-24T03:53:23.814Z,25.50
2018-01-24T03:54:27.862Z,22.50
2018-01-24T03:55:32.078Z,19.00
2018-01-24T03:56:36.228Z,26.50
2018-01-24T03:57:40.461Z,25.50
2018-01-24T03:58:44.583Z,23.00
2018-01-24T03:59:48.991Z,24.50
2018-01-24T04:00:53.388Z,28.00
2018-01-24T04:01:58.181Z,21.00
2018-01-24T04:03:02.375Z,19.00
2018-01-24T04:04:06.446Z,20.00
2018-01-24T04:05:10.539Z,20.50
2018-01-24T04:06:15.066Z,24.00
2018-01-24T04:07:19.217Z,21.50
2018-01-24T04:08:23.357Z,20.00
2018-01-24T04:09:27.512Z,22.50
2018-01-24T04:10:31.615Z,28.00
2018-01-24T04:11:36.213Z,21.00
2018-01-24T04:12:40.607Z,26.00
2018-01-24T04:13:44.835Z,18.50
2018-01-24T04:14:48.928Z,21.50
2018-01-24T04:15:53.584Z,21.00
2018-01-24T04:16:57.665Z,25.00
2018-01-24T04:18:01.751Z,17.50
2018-01-24T04:19:06.304Z,18.50
2018-01-24T04:20:10.557Z,18.50
2018-01-24T04:21:14.632Z,23.00
2018-01-24T04:22:18.727Z,26.50
2018-01-24T04:23:22.807Z,16.50
2018-01-24T04:24:26.949Z,25.50
2018-01-24T04:25:31.433Z,34.50
2018-01-24T04:26:35.601Z,27.50
2018-01-24T04:27:39.756Z,19.50
2018-01-24T04:28:43.860Z,25.50
2018-01-24T04:29:48.022Z,21.00
2018-01-24T04:30:52.540Z,24.50
2018-01-24T04:31:56.650Z,26.00
2018-01-24T04:33:00.761Z,20.00
2018-01-24T04:34:04.878Z,20.00
2018-01-24T04:35:09.186Z,23.00
2018-01-24T04:36:13.271Z,25.00
2018-01-24T04:37:17.456Z,25.50
2018-01-24T04:38:21.936Z,24.00
2018-01-24T04:39:26.108Z,25.50
2018-01-24T04:40:30.220Z,26.00
2018-01-24T04:41:37.078Z,24.50
2018-01-24T04:42:41.167Z,22.00
2018-01-24T04:43:45.228Z,19.50
2018-01-24T04:44:49.760Z,17.50
2018-01-24T04:45:54.204Z,28.00
2018-01-24T04:46:59.442Z,19.50
2018-01-24T04:48:03.572Z,20.50
2018-01-24T04:49:07.660Z,15.00
2018-01-24T04:50:12.333Z,16.50
2018-01-24T04:51:16.872Z,19.50
2018-01-24T04:52:20.948Z,24.00
2018-01-24T04:53:25.048Z,18.50
2018-01-24T04:54:29.250Z,22.00
2018-01-24T04:55:33.357Z,26.50
2018-01-24T04:56:37.471Z,23.50
2018-01-24T04:57:41.671Z,19.50
2018-01-24T04:58:46.639Z,23.00
2018-01-24T04:59:50.874Z,25.00
2018-01-24T05:00:55.821Z,17.50
2018-01-24T05:02:00.207Z,31.50
2018-01-24T05:03:04.718Z,26.00
2018-01-24T05:04:09.187Z,16.50
2018-01-24T05:05:13.447Z,27.50
2018-01-24T05:06:19.285Z,30.50
2018-01-24T05:07:23.488Z,24.50
2018-01-24T05:08:27.734Z,20.50
2018-01-24T05:09:34.753Z,22.00
2018-01-24T05:10:39.297Z,21.00
2018-01-24T05:11:43.488Z,25.00
2018-01-24T05:12:48.457Z,18.50
2018-01-24T05:13:52.721Z,14.50
2018-01-24T05:14:56.882Z,20.50
2018-01-24T05:16:02.171Z,23.50
2018-01-24T05:17:06.367Z,21.50
2018-01-24T05:18:10.579Z,20.00
2018-01-24T05:19:14.771Z,18.50
2018-01-24T05:20:19.388Z,22.00
2018-01-24T05:21:23.687Z,18.50
2018-01-24T05:22:27.928Z,21.00
2018-01-24T05:23:32.048Z,22.00
2018-01-24T05:24:36.246Z,19.50
2018-01-24T05:25:40.817Z,20.50
2018-01-24T05:26:44.904Z,16.00
2018-01-24T05:27:49.649Z,19.00
2018-01-24T05:28:53.763Z,19.00
2018-01-24T05:29:57.908Z,22.00
2018-01-24T05:31:02.172Z,22.50
2018-01-24T05:32:06.265Z,22.00
2018-01-24T05:33:10.414Z,23.50
2018-01-24T05:34:14.871Z,19.00
2018-01-24T05:35:19.041Z,22.00
2018-01-24T05:36:23.164Z,25.50
2018-01-24T05:37:27.240Z,22.50
2018-01-24T05:38:31.392Z,26.50
2018-01-24T05:39:35.544Z,23.50
2018-01-24T05:40:39.669Z,21.50
2018-01-24T05:41:43.820Z,31.00
2018-01-24T05:42:49.110Z,19.00
2018-01-24T05:43:53.221Z,22.50
2018-01-24T05:44:58.373Z,19.00
2018-01-24T05:46:03.040Z,29.00
2018-01-24T05:47:07.176Z,23.00
2018-01-24T05:48:11.267Z,22.50
2018-01-24T05:49:15.356Z,18.00
2018-01-24T05:50:19.580Z,29.00
2018-01-24T05:51:23.731Z,20.00
2018-01-24T05:52:28.162Z,29.50
2018-01-24T05:53:32.288Z,21.00
2018-01-24T05:54:36.528Z,28.00
2018-01-24T05:55:40.610Z,27.00
2018-01-24T05:56:44.745Z,35.50
2018-01-24T05:57:49.938Z,23.00
2018-01-24T05:58:54.051Z,28.00
2018-01-24T05:59:59.113Z,24.50
2018-01-24T06:01:03.555Z,27.00
2018-01-24T06:02:08.111Z,31.00
2018-01-24T06:03:12.260Z,23.50
2018-01-24T06:04:16.704Z,24.00
2018-01-24T06:05:20.904Z,25.00
2018-01-24T06:06:25.008Z,26.00
2018-01-24T06:07:29.124Z,27.00
2018-01-24T06:08:33.226Z,30.00
2018-01-24T06:09:37.341Z,33.50
2018-01-24T06:10:41.840Z,19.00
2018-01-24T06:11:45.991Z,27.00
2018-01-24T06:12:51.098Z,21.50
2018-01-24T06:13:55.294Z,21.00
2018-01-24T06:15:00.023Z,27.50
2018-01-24T06:16:04.478Z,33.00
2018-01-24T06:17:08.931Z,24.50
2018-01-24T06:18:13.032Z,30.00
2018-01-24T06:19:17.145Z,24.00
2018-01-24T06:20:21.309Z,25.50
2018-01-24T06:21:25.411Z,29.00
2018-01-24T06:22:29.568Z,29.00
2018-01-24T06:23:33.676Z,26.50
2018-01-24T06:24:37.802Z,32.50
2018-01-24T06:25:41.911Z,38.00
2018-01-24T06:26:46.021Z,35.00
2018-01-24T06:27:50.153Z,38.50
2018-01-24T06:28:54.340Z,37.50
2018-01-24T06:29:59.563Z,38.00
2018-01-24T06:31:03.861Z,38.50
2018-01-24T06:32:08.205Z,38.50
2018-01-24T06:33:12.625Z,27.50
2018-01-24T06:34:17.342Z,36.00
2018-01-24T06:35:21.620Z,40.00
2018-01-24T06:36:26.626Z,35.00
2018-01-24T06:37:30.852Z,41.00
2018-01-24T06:38:35.235Z,40.00
2018-01-24T06:39:39.665Z,35.50
2018-01-24T06:40:43.821Z,28.00
2018-01-24T06:41:48.476Z,34.50
2018-01-24T06:42:53.097Z,32.00
2018-01-24T06:43:57.200Z,31.50
2018-01-24T06:45:03.066Z,39.00
2018-01-24T06:46:09.532Z,24.50
2018-01-24T06:47:13.655Z,38.00
2018-01-24T06:48:17.769Z,33.00
2018-01-24T06:49:22.157Z,36.50
2018-01-24T06:50:26.268Z,38.00
2018-01-24T06:51:30.435Z,37.00
2018-01-24T06:52:34.553Z,32.00
2018-01-24T06:53:38.734Z,35.50
2018-01-24T06:54:43.124Z,26.50
2018-01-24T06:55:47.200Z,30.50
2018-01-24T06:56:51.336Z,32.00
2018-01-24T06:57:55.456Z,38.50
2018-01-24T06:58:59.563Z,23.50
2018-01-24T07:00:05.544Z,36.00
2018-01-24T07:01:09.658Z,40.00
2018-01-24T07:02:13.836Z,37.00
2018-01-24T07:03:17.933Z,25.00
2018-01-24T07:04:22.141Z,27.00
2018-01-24T07:05:26.371Z,25.50
2018-01-24T07:06:30.976Z,34.00
2018-01-24T07:07:35.116Z,35.00
2018-01-24T07:08:39.212Z,37.00
2018-01-24T07:09:43.428Z,35.00
2018-01-24T07:10:48.265Z,33.50
2018-01-24T07:11:56.872Z,38.50
2018-01-24T07:13:12.850Z,30.50
2018-01-24T07:14:50.239Z,40.00
2018-01-24T07:15:54.543Z,44.00
2018-01-24T07:16:58.674Z,40.00
2018-01-24T07:18:02.836Z,37.00
2018-01-24T07:19:06.948Z,40.00
2018-01-24T07:20:11.137Z,44.00
2018-01-24T07:21:15.336Z,36.00
2018-01-24T07:22:19.415Z,44.00
2018-01-24T07:23:23.732Z,32.00
2018-01-24T07:24:27.864Z,34.00
2018-01-24T07:25:32.276Z,40.00
2018-01-24T07:26:36.452Z,46.50
2018-01-24T07:27:40.540Z,42.50
2018-01-24T07:28:44.741Z,36.50
2018-01-24T07:29:48.864Z,40.00
2018-01-24T07:30:52.974Z,38.00
2018-01-24T07:31:57.964Z,26.50
2018-01-24T07:33:02.101Z,35.00
2018-01-24T07:34:06.300Z,30.50
2018-01-24T07:35:10.500Z,31.50
2018-01-24T07:36:14.948Z,36.00
2018-01-24T07:37:19.105Z,32.00
2018-01-24T07:38:23.381Z,36.00
2018-01-24T07:39:27.513Z,30.50
2018-01-24T07:40:31.616Z,35.50
2018-01-24T07:41:35.724Z,19.50
2018-01-24T07:42:40.140Z,35.50
2018-01-24T07:43:44.384Z,37.50
2018-01-24T07:44:48.765Z,31.00
2018-01-24T07:45:53.283Z,38.50
2018-01-24T07:46:58.267Z,31.50
2018-01-24T07:48:02.469Z,28.50
2018-01-24T07:49:06.564Z,29.50
2018-01-24T07:50:10.679Z,27.50
2018-01-24T07:51:14.796Z,27.50
2018-01-24T07:52:18.881Z,31.50
2018-01-24T07:53:23.088Z,38.00
2018-01-24T07:54:27.264Z,40.50
2018-01-24T07:55:31.711Z,27.50
2018-01-24T07:56:35.947Z,32.00
2018-01-24T07:57:40.096Z,38.50
2018-01-24T07:58:44.316Z,30.50
2018-01-24T07:59:48.440Z,33.00
2018-01-24T08:00:52.913Z,37.00
2018-01-24T08:01:58.149Z,34.50
2018-01-24T08:03:02.212Z,33.00
2018-01-24T08:04:06.696Z,34.50
2018-01-24T08:05:10.899Z,37.00
2018-01-24T08:06:15.199Z,30.00
2018-01-24T08:07:19.298Z,32.50
2018-01-24T08:08:23.724Z,34.00
2018-01-24T08:09:27.885Z,33.50
2018-01-24T08:10:32.000Z,39.00
2018-01-24T08:11:36.185Z,28.00
2018-01-24T08:12:40.304Z,24.50
2018-01-24T08:13:44.412Z,30.00
2018-01-24T08:14:49.462Z,30.50
2018-01-24T08:15:53.780Z,40.00
2018-01-24T08:16:58.023Z,37.00
2018-01-24T08:18:02.392Z,39.00
2018-01-24T08:19:06.638Z,40.00
2018-01-24T08:20:10.732Z,38.00
2018-01-24T08:21:16.863Z,43.50
2018-01-24T08:22:21.057Z,26.00
2018-01-24T08:23:25.161Z,30.00
2018-01-24T08:24:29.288Z,31.00
2018-01-24T08:25:33.392Z,29.00
2018-01-24T08:26:37.629Z,28.00
2018-01-24T08:27:42.064Z,39.00
2018-01-24T08:28:47.312Z,29.50
2018-01-24T08:29:51.487Z,36.00
2018-01-24T08:30:55.723Z,31.00
2018-01-24T08:32:00.188Z,24.50
2018-01-24T08:33:04.563Z,26.00
2018-01-24T08:34:09.413Z,34.00
2018-01-24T08:35:13.580Z,34.00
2018-01-24T08:36:17.737Z,22.00
2018-01-24T08:37:22.368Z,27.50
2018-01-24T08:38:26.572Z,33.50
2018-01-24T08:39:30.996Z,33.50
2018-01-24T08:40:35.144Z,29.00
2018-01-24T08:41:39.258Z,23.50
2018-01-24T08:42:43.449Z,23.50
2018-01-24T08:43:48.179Z,24.50
2018-01-24T08:44:53.014Z,28.00
2018-01-24T08:45:58.449Z,32.50
2018-01-24T08:47:02.921Z,31.50
2018-01-24T08:48:07.449Z,32.50
2018-01-24T08:49:11.624Z,30.50
2018-01-24T08:50:15.939Z,29.00
2018-01-24T08:51:20.030Z,29.00
2018-01-24T08:52:24.641Z,27.50
2018-01-24T08:53:28.836Z,40.00
2018-01-24T08:54:33.000Z,23.50
2018-01-24T08:55:37.218Z,23.00
2018-01-24T08:56:41.382Z,21.50
2018-01-24T08:57:45.484Z,31.00
2018-01-24T08:58:50.978Z,26.50
2018-01-24T08:59:55.881Z,32.50
2018-01-24T09:01:00.244Z,33.00
2018-01-24T09:02:04.362Z,23.50
2018-01-24T09:03:08.531Z,22.50
2018-01-24T09:04:12.792Z,18.00
2018-01-24T09:05:16.899Z,19.00
2018-01-24T09:06:20.970Z,27.50
2018-01-24T09:07:25.158Z,22.00
2018-01-24T09:08:29.275Z,21.50
2018-01-24T09:09:33.356Z,29.50
2018-01-24T09:10:37.490Z,31.00
2018-01-24T09:11:43.179Z,18.00
2018-01-24T09:12:47.279Z,20.00
2018-01-24T09:13:52.144Z,33.00
2018-01-24T09:14:56.296Z,25.50
2018-01-24T09:16:00.654Z,31.00
2018-01-24T09:17:04.817Z,28.00
2018-01-24T09:18:09.241Z,32.00
2018-01-24T09:19:13.336Z,31.50
2018-01-24T09:20:18.379Z,38.50
2018-01-24T09:21:22.643Z,30.50
2018-01-24T09:22:26.727Z,37.00
2018-01-24T09:23:30.824Z,34.00
2018-01-24T09:24:35.318Z,35.50
2018-01-24T09:25:40.437Z,27.00
2018-01-24T09:26:44.724Z,29.50
2018-01-24T09:27:48.882Z,28.50
2018-01-24T09:28:52.993Z,33.00
2018-01-24T09:29:57.111Z,32.50
2018-01-24T09:31:02.160Z,28.00
2018-01-24T09:32:06.324Z,28.00
2018-01-24T09:33:10.507Z,26.50
2018-01-24T09:34:14.608Z,27.00
2018-01-24T09:35:18.745Z,35.50
2018-01-24T09:36:22.955Z,23.50
2018-01-24T09:37:28.422Z,33.50
2018-01-24T09:38:32.652Z,29.50
2018-01-24T09:39:36.870Z,28.00
2018-01-24T09:40:41.022Z,26.50
2018-01-24T09:41:45.175Z,28.50
2018-01-24T09:42:49.329Z,22.00
2018-01-24T09:43:55.249Z,26.50
2018-01-24T09:44:59.401Z,27.00
2018-01-24T09:46:05.017Z,25.50
2018-01-24T09:47:10.172Z,21.00
2018-01-24T09:48:14.287Z,22.00
2018-01-24T09:49:18.512Z,19.00
2018-01-24T09:50:22.643Z,29.00
2018-01-24T09:51:26.782Z,18.00
2018-01-24T09:52:30.925Z,24.50
2018-01-24T09:53:35.144Z,23.00
2018-01-24T09:54:39.300Z,20.50
2018-01-24T09:55:43.413Z,26.50
2018-01-24T09:56:47.888Z,22.00
2018-01-24T09:57:52.118Z,24.00
2018-01-24T09:58:56.291Z,29.00
2018-01-24T10:00:00.475Z,22.00
2018-01-24T10:01:05.712Z,31.50
2018-01-24T10:02:09.832Z,23.50
2018-01-24T10:03:14.973Z,24.50
2018-01-24T10:04:19.148Z,24.00
2018-01-24T10:06:57.900Z,30.50
2018-01-24T10:08:02.179Z,24.50
2018-01-24T10:09:06.470Z,25.50
2018-01-24T10:10:11.936Z,27.00
2018-01-24T10:11:16.209Z,29.50
2018-01-24T10:12:20.409Z,23.00
2018-01-24T10:13:24.624Z,26.50
2018-01-24T10:14:28.779Z,19.00
2018-01-24T10:15:33.523Z,33.50
2018-01-24T10:16:37.933Z,32.00
2018-01-24T10:17:42.894Z,28.00
2018-01-24T10:18:47.090Z,16.50
2018-01-24T10:19:51.286Z,17.00
2018-01-24T10:20:56.627Z,19.00
2018-01-24T10:22:01.111Z,24.00
2018-01-24T10:23:05.291Z,22.50
2018-01-24T10:24:09.467Z,23.00
2018-01-24T10:25:13.672Z,21.00
2018-01-24T10:26:17.938Z,26.00
2018-01-24T10:27:22.091Z,24.00
2018-01-24T10:28:26.570Z,21.50
2018-01-24T10:29:30.760Z,22.50
2018-01-24T10:30:35.312Z,22.50
2018-01-24T10:31:39.556Z,25.00
2018-01-24T10:32:43.792Z,22.00
2018-01-24T10:33:48.003Z,18.50
2018-01-24T10:34:53.504Z,20.50
2018-01-24T10:35:58.491Z,18.00
2018-01-24T10:37:02.746Z,22.00
2018-01-24T10:38:06.927Z,23.00
2018-01-24T10:39:11.173Z,20.50
2018-01-24T10:40:15.374Z,21.00
2018-01-24T10:41:20.471Z,20.00
2018-01-24T10:42:24.754Z,21.50
2018-01-24T10:43:28.979Z,20.00
2018-01-24T10:44:33.121Z,21.00
2018-01-24T10:45:38.042Z,23.50
2018-01-24T10:46:42.278Z,24.50
2018-01-24T10:47:46.647Z,23.00
2018-01-24T10:48:50.896Z,20.00
2018-01-24T10:49:55.109Z,24.50
2018-01-24T10:50:59.622Z,18.00
2018-01-24T10:52:04.653Z,22.50
2018-01-24T10:53:08.888Z,18.00
2018-01-24T10:54:13.165Z,23.00
2018-01-24T10:55:17.524Z,16.50
2018-01-24T10:56:21.736Z,22.00
2018-01-24T10:57:26.700Z,22.00
2018-01-24T10:58:31.166Z,17.50
2018-01-24T10:59:35.317Z,15.00
2018-01-24T11:00:39.876Z,23.50
2018-01-24T11:01:44.289Z,12.00
2018-01-24T11:02:49.462Z,18.00
2018-01-24T11:03:53.956Z,15.00
2018-01-24T11:04:58.674Z,17.50
2018-01-24T11:06:02.886Z,19.50
2018-01-24T11:07:07.182Z,17.00
2018-01-24T11:08:11.387Z,18.50
2018-01-24T11:09:15.564Z,19.50
2018-01-24T11:10:20.138Z,21.00
2018-01-24T11:11:24.423Z,19.00
2018-01-24T11:12:28.603Z,12.00
2018-01-24T11:13:32.803Z,22.00
2018-01-24T11:14:37.019Z,24.00
2018-01-24T11:15:41.759Z,25.00
2018-01-24T11:16:45.942Z,24.50
2018-01-24T11:17:50.208Z,21.00
2018-01-24T11:18:55.435Z,15.00
2018-01-24T11:20:00.658Z,24.50
2018-01-24T11:21:04.884Z,17.50
2018-01-24T11:22:09.282Z,17.50
2018-01-24T11:23:13.735Z,14.50
2018-01-24T11:24:18.599Z,16.00
2018-01-24T11:25:22.847Z,13.50
2018-01-24T11:26:27.175Z,22.00
2018-01-24T11:27:31.410Z,18.00
2018-01-24T11:28:36.012Z,16.00
2018-01-24T11:29:40.348Z,14.00
2018-01-24T11:30:44.733Z,19.00
2018-01-24T11:31:49.067Z,16.00
2018-01-24T11:32:53.257Z,22.00
2018-01-24T11:33:58.418Z,21.50
2018-01-24T11:35:03.542Z,17.50
2018-01-24T11:36:07.707Z,16.50
2018-01-24T11:37:12.014Z,21.00
2018-01-24T11:38:16.171Z,16.50
2018-01-24T11:39:20.395Z,24.00
2018-01-24T11:40:24.688Z,20.50
2018-01-24T11:41:28.913Z,16.00
2018-01-24T11:42:33.098Z,21.50
2018-01-24T11:43:37.329Z,18.50
2018-01-24T11:44:41.607Z,18.00
2018-01-24T11:45:45.997Z,24.00
2018-01-24T11:46:50.174Z,20.00
2018-01-24T11:47:54.363Z,27.50
2018-01-24T11:48:59.283Z,26.50
2018-01-24T11:50:03.543Z,22.00
2018-01-24T11:51:08.459Z,15.50
2018-01-24T11:52:12.578Z,22.00
2018-01-24T11:53:17.145Z,20.00
2018-01-24T11:54:21.367Z,22.50
2018-01-24T11:55:25.655Z,20.50
2018-01-24T11:56:29.837Z,21.00
2018-01-24T11:57:34.005Z,15.50
2018-01-24T11:58:38.326Z,18.50
2018-01-24T11:59:42.830Z,23.00
2018-01-24T12:00:47.302Z,18.50
2018-01-24T12:01:52.050Z,23.00
2018-01-24T12:02:56.735Z,22.50
2018-01-24T12:04:00.984Z,17.00
2018-01-24T12:05:05.257Z,17.50
2018-01-24T12:06:11.507Z,16.00
2018-01-24T12:07:15.879Z,18.00
2018-01-24T12:08:20.139Z,16.00
2018-01-24T12:09:24.359Z,18.00
2018-01-24T12:10:28.646Z,21.00
2018-01-24T12:11:32.961Z,18.00
2018-01-24T12:12:38.350Z,20.00
2018-01-24T12:13:42.714Z,18.00
2018-01-24T12:14:47.083Z,18.00
2018-01-24T12:15:51.490Z,19.50
2018-01-24T12:16:55.750Z,21.00
2018-01-24T12:18:00.278Z,15.00
2018-01-24T12:19:08.256Z,12.00
2018-01-24T12:20:12.538Z,15.00
2018-01-24T12:21:16.752Z,13.50
2018-01-24T12:22:21.147Z,21.50
2018-01-24T12:23:25.414Z,17.00
2018-01-24T12:24:30.102Z,13.00
2018-01-24T12:25:34.408Z,18.00
2018-01-24T12:26:38.728Z,14.00
2018-01-24T12:27:42.923Z,17.00
2018-01-24T12:28:47.198Z,19.00
2018-01-24T12:29:51.430Z,16.00
2018-01-24T12:30:56.224Z,27.50
2018-01-24T12:32:00.956Z,13.50
2018-01-24T12:33:05.318Z,10.00
2018-01-24T12:34:09.540Z,18.50
2018-01-24T12:35:14.150Z,12.50
2018-01-24T12:36:18.417Z,16.00
2018-01-24T12:37:22.666Z,23.00
2018-01-24T12:38:26.952Z,19.00
2018-01-24T12:39:31.230Z,16.00
2018-01-24T12:40:35.898Z,14.50
2018-01-24T12:41:40.630Z,17.00
2018-01-24T12:42:45.087Z,19.50
2018-01-24T12:43:49.485Z,16.00
2018-01-24T12:44:54.374Z,15.00
2018-01-24T12:45:59.629Z,21.50
2018-01-24T12:47:04.633Z,17.00
2018-01-24T12:48:10.390Z,14.00
2018-01-24T12:49:15.313Z,20.50
2018-01-24T12:50:19.590Z,19.00
2018-01-24T12:51:24.014Z,20.50
2018-01-24T12:52:28.190Z,20.00
2018-01-24T12:53:32.448Z,18.00
2018-01-24T12:54:37.325Z,18.50
2018-01-24T12:55:41.803Z,14.50
2018-01-24T12:56:46.155Z,20.00
2018-01-24T12:57:50.525Z,21.00
2018-01-24T12:58:55.789Z,16.50
2018-01-24T13:00:01.394Z,12.00
2018-01-24T13:01:06.667Z,19.00
2018-01-24T13:02:11.627Z,23.50
2018-01-24T13:03:15.947Z,22.50
2018-01-24T13:04:20.615Z,22.50
2018-01-24T13:05:25.318Z,20.50
2018-01-24T13:06:29.910Z,16.50
2018-01-24T13:07:34.172Z,18.00
2018-01-24T13:08:38.441Z,18.00
2018-01-24T13:09:46.337Z,18.00
2018-01-24T13:10:50.636Z,16.00
2018-01-24T13:11:55.016Z,17.00
2018-01-24T13:12:59.402Z,15.50
2018-01-24T13:14:04.992Z,16.00
2018-01-24T13:15:09.471Z,13.50
2018-01-24T13:16:14.416Z,20.00
2018-01-24T13:17:19.752Z,15.00
2018-01-24T13:18:24.196Z,10.50
2018-01-24T13:19:28.907Z,17.00
2018-01-24T13:20:34.581Z,15.00
2018-01-24T13:21:39.895Z,12.00
2018-01-24T13:22:44.145Z,12.50
2018-01-24T13:23:48.523Z,17.00
2018-01-24T13:24:52.794Z,19.50
2018-01-24T13:25:57.971Z,11.50
2018-01-24T13:27:03.746Z,12.50
2018-01-24T13:28:09.582Z,12.00
2018-01-24T13:29:15.531Z,19.00
2018-01-24T13:30:20.193Z,20.50
2018-01-24T13:31:24.868Z,12.50
2018-01-24T13:32:29.789Z,14.00
2018-01-24T13:33:34.317Z,14.00
2018-01-24T13:34:38.680Z,17.50
2018-01-24T13:35:43.153Z,14.00
2018-01-24T13:36:47.475Z,12.00
2018-01-24T13:37:51.891Z,21.00
2018-01-24T13:38:58.885Z,19.50
2018-01-24T13:40:03.376Z,15.50
2018-01-24T13:41:08.815Z,15.50
2018-01-24T13:42:13.431Z,15.50
2018-01-24T13:43:18.087Z,18.50
2018-01-24T13:44:22.675Z,19.00
2018-01-24T13:45:27.865Z,21.50
2018-01-24T13:46:32.480Z,14.50
2018-01-24T13:47:37.797Z,17.50
2018-01-24T13:48:42.479Z,18.00
2018-01-24T13:49:47.319Z,16.50
2018-01-24T13:50:51.718Z,15.00
2018-01-24T13:51:57.296Z,17.00
2018-01-24T13:53:01.684Z,21.00